sensor_id;sensor_type;location;lat;lon;timestamp;P1;durP1;ratioP1;P2;durP2;ratioP2
7295;SDS011;40758;54.038;11.684;2023-11-18T00:01:44;2.63;;;0.82;;
7295;SDS011;40758;54.038;11.684;2023-11-18T00:04:11;3.08;;;0.95;;
7295;SDS011;40758;54.038;11.684;2023-11-18T00:06:42;2.58;;;0.88;;
7295;SDS011;40758;54.038;11.684;2023-11-18T00:09:10;2.85;;;0.77;;
7295;SDS011;40758;54.038;11.684;2023-11-18T00:11:41;3.08;;;0.95;;
7295;SDS011;40758;54.038;11.684;2023-11-18T00:14:11;2.15;;;0.65;;
7295;SDS011;40758;54.038;11.684;2023-11-18T00:16:39;4.10;;;1.00;;
7295;SDS011;40758;54.038;11.684;2023-11-18T00:19:07;2.63;;;1.08;;
7295;SDS011;40758;54.038;11.684;2023-11-18T00:24:02;2.92;;;1.45;;
7295;SDS011;40758;54.038;11.684;2023-11-18T00:26:30;2.78;;;1.10;;
7295;SDS011;40758;54.038;11.684;2023-11-18T00:28:57;3.05;;;1.27;;
7295;SDS011;40758;54.038;11.684;2023-11-18T00:31:24;4.05;;;0.80;;
7295;SDS011;40758;54.038;11.684;2023-11-18T00:36:18;2.25;;;1.17;;
7295;SDS011;40758;54.038;11.684;2023-11-18T00:38:45;2.22;;;0.75;;
7295;SDS011;40758;54.038;11.684;2023-11-18T00:41:13;2.45;;;1.00;;
7295;SDS011;40758;54.038;11.684;2023-11-18T00:43:40;4.78;;;1.65;;
7295;SDS011;40758;54.038;11.684;2023-11-18T00:46:07;2.72;;;1.58;;
7295;SDS011;40758;54.038;11.684;2023-11-18T00:48:34;3.22;;;0.90;;
7295;SDS011;40758;54.038;11.684;2023-11-18T00:51:01;2.95;;;1.13;;
7295;SDS011;40758;54.038;11.684;2023-11-18T00:53:27;2.22;;;1.02;;
7295;SDS011;40758;54.038;11.684;2023-11-18T00:55:54;2.20;;;1.00;;
7295;SDS011;40758;54.038;11.684;2023-11-18T00:58:22;2.65;;;0.93;;
7295;SDS011;40758;54.038;11.684;2023-11-18T01:00:49;2.45;;;1.13;;
7295;SDS011;40758;54.038;11.684;2023-11-18T01:03:15;2.55;;;0.98;;
7295;SDS011;40758;54.038;11.684;2023-11-18T01:05:42;2.42;;;1.33;;
7295;SDS011;40758;54.038;11.684;2023-11-18T01:08:09;3.58;;;0.88;;
7295;SDS011;40758;54.038;11.684;2023-11-18T01:10:37;2.65;;;1.10;;
7295;SDS011;40758;54.038;11.684;2023-11-18T01:13:04;2.42;;;0.68;;
7295;SDS011;40758;54.038;11.684;2023-11-18T01:15:32;2.53;;;1.73;;
7295;SDS011;40758;54.038;11.684;2023-11-18T01:17:59;4.40;;;1.33;;
7295;SDS011;40758;54.038;11.684;2023-11-18T01:20:26;3.28;;;1.30;;
7295;SDS011;40758;54.038;11.684;2023-11-18T01:22:52;2.40;;;1.40;;
7295;SDS011;40758;54.038;11.684;2023-11-18T01:25:19;2.13;;;0.80;;
7295;SDS011;40758;54.038;11.684;2023-11-18T01:27:46;1.90;;;0.70;;
7295;SDS011;40758;54.038;11.684;2023-11-18T01:30:13;2.42;;;0.98;;
7295;SDS011;40758;54.038;11.684;2023-11-18T01:32:45;2.00;;;1.08;;
7295;SDS011;40758;54.038;11.684;2023-11-18T01:35:12;2.63;;;1.08;;
7295;SDS011;40758;54.038;11.684;2023-11-18T01:37:39;2.17;;;1.13;;
7295;SDS011;40758;54.038;11.684;2023-11-18T01:40:06;3.75;;;1.38;;
7295;SDS011;40758;54.038;11.684;2023-11-18T01:45:01;2.30;;;1.10;;
7295;SDS011;40758;54.038;11.684;2023-11-18T01:47:31;3.97;;;1.30;;
7295;SDS011;40758;54.038;11.684;2023-11-18T01:50:00;2.80;;;1.10;;
7295;SDS011;40758;54.038;11.684;2023-11-18T01:52:28;2.42;;;0.60;;
7295;SDS011;40758;54.038;11.684;2023-11-18T01:54:57;2.63;;;0.57;;
7295;SDS011;40758;54.038;11.684;2023-11-18T01:59:53;2.65;;;1.02;;
7295;SDS011;40758;54.038;11.684;2023-11-18T02:02:20;2.25;;;0.77;;
7295;SDS011;40758;54.038;11.684;2023-11-18T02:04:50;3.67;;;0.73;;
7295;SDS011;40758;54.038;11.684;2023-11-18T02:07:17;2.10;;;0.80;;
7295;SDS011;40758;54.038;11.684;2023-11-18T02:09:44;2.63;;;0.90;;
7295;SDS011;40758;54.038;11.684;2023-11-18T02:14:51;2.25;;;1.05;;
7295;SDS011;40758;54.038;11.684;2023-11-18T02:17:21;2.45;;;0.80;;
7295;SDS011;40758;54.038;11.684;2023-11-18T02:19:53;1.95;;;0.80;;
7295;SDS011;40758;54.038;11.684;2023-11-18T02:22:25;1.65;;;0.60;;
7295;SDS011;40758;54.038;11.684;2023-11-18T02:24:55;2.53;;;1.00;;
7295;SDS011;40758;54.038;11.684;2023-11-18T02:27:22;2.60;;;1.20;;
7295;SDS011;40758;54.038;11.684;2023-11-18T02:29:53;1.60;;;0.73;;
7295;SDS011;40758;54.038;11.684;2023-11-18T02:32:37;1.88;;;0.55;;
7295;SDS011;40758;54.038;11.684;2023-11-18T02:35:10;2.15;;;1.08;;
7295;SDS011;40758;54.038;11.684;2023-11-18T02:37:39;3.08;;;1.35;;
7295;SDS011;40758;54.038;11.684;2023-11-18T02:40:11;3.13;;;1.33;;
7295;SDS011;40758;54.038;11.684;2023-11-18T02:42:41;2.13;;;0.88;;
7295;SDS011;40758;54.038;11.684;2023-11-18T02:45:12;2.85;;;2.35;;
7295;SDS011;40758;54.038;11.684;2023-11-18T02:47:44;2.67;;;0.88;;
7295;SDS011;40758;54.038;11.684;2023-11-18T02:50:11;7.65;;;0.95;;
7295;SDS011;40758;54.038;11.684;2023-11-18T02:52:40;2.75;;;0.80;;
7295;SDS011;40758;54.038;11.684;2023-11-18T02:55:07;2.47;;;0.85;;
7295;SDS011;40758;54.038;11.684;2023-11-18T02:57:35;2.38;;;1.08;;
7295;SDS011;40758;54.038;11.684;2023-11-18T03:00:05;2.45;;;1.05;;
7295;SDS011;40758;54.038;11.684;2023-11-18T03:02:41;2.67;;;0.88;;
7295;SDS011;40758;54.038;11.684;2023-11-18T03:05:07;3.13;;;0.63;;
7295;SDS011;40758;54.038;11.684;2023-11-18T03:07:41;2.03;;;0.68;;
7295;SDS011;40758;54.038;11.684;2023-11-18T03:10:11;2.17;;;0.50;;
7295;SDS011;40758;54.038;11.684;2023-11-18T03:12:38;2.40;;;0.55;;
7295;SDS011;40758;54.038;11.684;2023-11-18T03:15:05;2.33;;;1.33;;
7295;SDS011;40758;54.038;11.684;2023-11-18T03:17:36;2.38;;;0.60;;
7295;SDS011;40758;54.038;11.684;2023-11-18T03:20:04;2.33;;;0.98;;
7295;SDS011;40758;54.038;11.684;2023-11-18T03:22:38;3.28;;;1.70;;
7295;SDS011;40758;54.038;11.684;2023-11-18T03:25:05;4.05;;;1.00;;
7295;SDS011;40758;54.038;11.684;2023-11-18T03:27:33;2.85;;;1.08;;
7295;SDS011;40758;54.038;11.684;2023-11-18T03:30:00;2.50;;;0.85;;
7295;SDS011;40758;54.038;11.684;2023-11-18T03:32:27;2.40;;;1.30;;
7295;SDS011;40758;54.038;11.684;2023-11-18T03:34:54;2.05;;;0.77;;
7295;SDS011;40758;54.038;11.684;2023-11-18T03:37:20;3.13;;;0.77;;
7295;SDS011;40758;54.038;11.684;2023-11-18T03:39:49;3.30;;;1.35;;
7295;SDS011;40758;54.038;11.684;2023-11-18T03:42:16;2.00;;;0.73;;
7295;SDS011;40758;54.038;11.684;2023-11-18T03:44:42;2.90;;;0.65;;
7295;SDS011;40758;54.038;11.684;2023-11-18T03:47:11;3.58;;;0.77;;
7295;SDS011;40758;54.038;11.684;2023-11-18T03:49:40;2.00;;;0.90;;
7295;SDS011;40758;54.038;11.684;2023-11-18T03:52:07;1.80;;;0.65;;
7295;SDS011;40758;54.038;11.684;2023-11-18T03:54:35;3.10;;;0.98;;
7295;SDS011;40758;54.038;11.684;2023-11-18T03:57:01;3.78;;;0.70;;
7295;SDS011;40758;54.038;11.684;2023-11-18T03:59:29;2.20;;;0.68;;
7295;SDS011;40758;54.038;11.684;2023-11-18T04:01:56;1.95;;;1.13;;
7295;SDS011;40758;54.038;11.684;2023-11-18T04:04:24;2.40;;;1.27;;
7295;SDS011;40758;54.038;11.684;2023-11-18T04:06:50;5.50;;;0.98;;
7295;SDS011;40758;54.038;11.684;2023-11-18T04:09:17;2.80;;;0.70;;
7295;SDS011;40758;54.038;11.684;2023-11-18T04:11:44;2.00;;;1.30;;
7295;SDS011;40758;54.038;11.684;2023-11-18T04:14:11;2.88;;;1.13;;
7295;SDS011;40758;54.038;11.684;2023-11-18T04:16:38;3.50;;;0.68;;
7295;SDS011;40758;54.038;11.684;2023-11-18T04:19:05;1.75;;;0.65;;
7295;SDS011;40758;54.038;11.684;2023-11-18T04:21:32;3.17;;;0.93;;
7295;SDS011;40758;54.038;11.684;2023-11-18T04:23:59;2.35;;;2.08;;
7295;SDS011;40758;54.038;11.684;2023-11-18T04:26:26;3.13;;;1.50;;
7295;SDS011;40758;54.038;11.684;2023-11-18T04:28:52;3.22;;;1.42;;
7295;SDS011;40758;54.038;11.684;2023-11-18T04:31:19;3.42;;;1.63;;
7295;SDS011;40758;54.038;11.684;2023-11-18T04:33:47;5.05;;;1.10;;
7295;SDS011;40758;54.038;11.684;2023-11-18T04:36:14;2.88;;;0.90;;
7295;SDS011;40758;54.038;11.684;2023-11-18T04:38:42;3.30;;;0.80;;
7295;SDS011;40758;54.038;11.684;2023-11-18T04:41:12;3.15;;;1.08;;
7295;SDS011;40758;54.038;11.684;2023-11-18T04:43:38;3.53;;;0.82;;
7295;SDS011;40758;54.038;11.684;2023-11-18T04:46:11;2.08;;;1.15;;
7295;SDS011;40758;54.038;11.684;2023-11-18T04:48:38;1.77;;;0.68;;
7295;SDS011;40758;54.038;11.684;2023-11-18T04:51:08;5.18;;;1.77;;
7295;SDS011;40758;54.038;11.684;2023-11-18T04:53:34;1.77;;;0.75;;
7295;SDS011;40758;54.038;11.684;2023-11-18T04:56:02;2.75;;;0.98;;
7295;SDS011;40758;54.038;11.684;2023-11-18T04:58:29;2.35;;;1.15;;
7295;SDS011;40758;54.038;11.684;2023-11-18T05:00:56;2.88;;;0.68;;
7295;SDS011;40758;54.038;11.684;2023-11-18T05:03:23;2.72;;;1.75;;
7295;SDS011;40758;54.038;11.684;2023-11-18T05:05:51;2.65;;;1.13;;
7295;SDS011;40758;54.038;11.684;2023-11-18T05:08:22;1.52;;;0.47;;
7295;SDS011;40758;54.038;11.684;2023-11-18T05:10:49;2.38;;;0.68;;
7295;SDS011;40758;54.038;11.684;2023-11-18T05:13:16;5.63;;;1.55;;
7295;SDS011;40758;54.038;11.684;2023-11-18T05:15:45;2.85;;;0.88;;
7295;SDS011;40758;54.038;11.684;2023-11-18T05:18:14;2.33;;;0.85;;
7295;SDS011;40758;54.038;11.684;2023-11-18T05:20:42;3.08;;;2.40;;
7295;SDS011;40758;54.038;11.684;2023-11-18T05:23:09;2.70;;;0.82;;
7295;SDS011;40758;54.038;11.684;2023-11-18T05:25:37;2.80;;;0.75;;
7295;SDS011;40758;54.038;11.684;2023-11-18T05:28:06;2.38;;;0.93;;
7295;SDS011;40758;54.038;11.684;2023-11-18T05:30:35;2.70;;;0.80;;
7295;SDS011;40758;54.038;11.684;2023-11-18T05:33:04;2.47;;;0.68;;
7295;SDS011;40758;54.038;11.684;2023-11-18T05:35:32;3.40;;;0.85;;
7295;SDS011;40758;54.038;11.684;2023-11-18T05:37:59;3.60;;;1.08;;
7295;SDS011;40758;54.038;11.684;2023-11-18T05:40:26;3.40;;;0.90;;
7295;SDS011;40758;54.038;11.684;2023-11-18T05:42:55;2.67;;;1.02;;
7295;SDS011;40758;54.038;11.684;2023-11-18T05:45:24;2.65;;;1.02;;
7295;SDS011;40758;54.038;11.684;2023-11-18T05:48:03;3.75;;;0.70;;
7295;SDS011;40758;54.038;11.684;2023-11-18T05:50:30;2.45;;;0.85;;
7295;SDS011;40758;54.038;11.684;2023-11-18T05:52:57;1.77;;;0.77;;
7295;SDS011;40758;54.038;11.684;2023-11-18T05:55:24;3.88;;;1.30;;
7295;SDS011;40758;54.038;11.684;2023-11-18T05:57:51;3.50;;;2.80;;
7295;SDS011;40758;54.038;11.684;2023-11-18T06:00:17;3.97;;;1.77;;
7295;SDS011;40758;54.038;11.684;2023-11-18T06:02:55;3.30;;;1.88;;
7295;SDS011;40758;54.038;11.684;2023-11-18T06:05:22;3.22;;;1.40;;
7295;SDS011;40758;54.038;11.684;2023-11-18T06:07:52;2.33;;;0.55;;
7295;SDS011;40758;54.038;11.684;2023-11-18T06:10:20;2.15;;;0.45;;
7295;SDS011;40758;54.038;11.684;2023-11-18T06:12:46;3.05;;;2.10;;
7295;SDS011;40758;54.038;11.684;2023-11-18T06:15:13;3.55;;;1.30;;
7295;SDS011;40758;54.038;11.684;2023-11-18T06:17:43;3.28;;;0.85;;
7295;SDS011;40758;54.038;11.684;2023-11-18T06:20:11;4.47;;;2.63;;
7295;SDS011;40758;54.038;11.684;2023-11-18T06:22:40;3.35;;;1.13;;
7295;SDS011;40758;54.038;11.684;2023-11-18T06:25:07;5.47;;;1.60;;
7295;SDS011;40758;54.038;11.684;2023-11-18T06:27:35;2.92;;;1.20;;
7295;SDS011;40758;54.038;11.684;2023-11-18T06:30:01;4.53;;;0.90;;
7295;SDS011;40758;54.038;11.684;2023-11-18T06:32:28;3.42;;;1.50;;
7295;SDS011;40758;54.038;11.684;2023-11-18T06:34:55;3.40;;;1.45;;
7295;SDS011;40758;54.038;11.684;2023-11-18T06:37:22;3.22;;;1.50;;
7295;SDS011;40758;54.038;11.684;2023-11-18T06:39:49;3.58;;;1.98;;
7295;SDS011;40758;54.038;11.684;2023-11-18T06:42:16;2.97;;;1.27;;
7295;SDS011;40758;54.038;11.684;2023-11-18T06:44:44;3.30;;;0.80;;
7295;SDS011;40758;54.038;11.684;2023-11-18T06:47:11;5.65;;;2.53;;
7295;SDS011;40758;54.038;11.684;2023-11-18T06:49:39;3.55;;;1.02;;
7295;SDS011;40758;54.038;11.684;2023-11-18T06:52:07;4.93;;;1.73;;
7295;SDS011;40758;54.038;11.684;2023-11-18T06:54:36;3.85;;;2.00;;
7295;SDS011;40758;54.038;11.684;2023-11-18T06:57:04;4.22;;;1.75;;
7295;SDS011;40758;54.038;11.684;2023-11-18T06:59:30;3.90;;;0.90;;
7295;SDS011;40758;54.038;11.684;2023-11-18T07:01:57;3.10;;;1.00;;
7295;SDS011;40758;54.038;11.684;2023-11-18T07:04:24;4.85;;;1.23;;
7295;SDS011;40758;54.038;11.684;2023-11-18T07:06:52;3.88;;;1.33;;
7295;SDS011;40758;54.038;11.684;2023-11-18T07:09:19;4.28;;;1.35;;
7295;SDS011;40758;54.038;11.684;2023-11-18T07:11:47;3.85;;;0.88;;
7295;SDS011;40758;54.038;11.684;2023-11-18T07:14:15;9.25;;;1.25;;
7295;SDS011;40758;54.038;11.684;2023-11-18T07:16:42;3.42;;;1.48;;
7295;SDS011;40758;54.038;11.684;2023-11-18T07:19:11;4.05;;;1.95;;
7295;SDS011;40758;54.038;11.684;2023-11-18T07:21:47;4.03;;;1.42;;
7295;SDS011;40758;54.038;11.684;2023-11-18T07:24:18;4.78;;;1.00;;
7295;SDS011;40758;54.038;11.684;2023-11-18T07:29:15;3.60;;;1.20;;
7295;SDS011;40758;54.038;11.684;2023-11-18T07:31:43;3.75;;;1.77;;
7295;SDS011;40758;54.038;11.684;2023-11-18T07:34:12;5.00;;;1.60;;
7295;SDS011;40758;54.038;11.684;2023-11-18T07:36:39;4.75;;;1.92;;
7295;SDS011;40758;54.038;11.684;2023-11-18T07:39:05;3.92;;;1.73;;
7295;SDS011;40758;54.038;11.684;2023-11-18T07:41:42;5.90;;;1.85;;
7295;SDS011;40758;54.038;11.684;2023-11-18T07:44:08;6.43;;;2.60;;
7295;SDS011;40758;54.038;11.684;2023-11-18T07:46:39;6.55;;;2.42;;
7295;SDS011;40758;54.038;11.684;2023-11-18T07:49:09;6.93;;;2.95;;
7295;SDS011;40758;54.038;11.684;2023-11-18T07:51:37;6.10;;;2.50;;
7295;SDS011;40758;54.038;11.684;2023-11-18T07:54:04;5.90;;;2.13;;
7295;SDS011;40758;54.038;11.684;2023-11-18T07:56:31;5.45;;;2.28;;
7295;SDS011;40758;54.038;11.684;2023-11-18T07:58:58;8.27;;;2.63;;
7295;SDS011;40758;54.038;11.684;2023-11-18T08:01:25;7.63;;;2.17;;
7295;SDS011;40758;54.038;11.684;2023-11-18T08:03:52;5.93;;;1.80;;
7295;SDS011;40758;54.038;11.684;2023-11-18T08:06:20;6.13;;;2.25;;
7295;SDS011;40758;54.038;11.684;2023-11-18T08:08:47;6.88;;;2.60;;
7295;SDS011;40758;54.038;11.684;2023-11-18T08:11:14;7.90;;;3.00;;
7295;SDS011;40758;54.038;11.684;2023-11-18T08:13:41;10.60;;;3.10;;
7295;SDS011;40758;54.038;11.684;2023-11-18T08:16:08;9.77;;;4.70;;
7295;SDS011;40758;54.038;11.684;2023-11-18T08:18:35;11.73;;;3.78;;
7295;SDS011;40758;54.038;11.684;2023-11-18T08:21:03;9.30;;;3.58;;
7295;SDS011;40758;54.038;11.684;2023-11-18T08:23:33;11.05;;;5.80;;
7295;SDS011;40758;54.038;11.684;2023-11-18T08:26:00;12.25;;;5.90;;
7295;SDS011;40758;54.038;11.684;2023-11-18T08:28:27;13.38;;;6.05;;
7295;SDS011;40758;54.038;11.684;2023-11-18T08:30:56;10.10;;;3.78;;
7295;SDS011;40758;54.038;11.684;2023-11-18T08:33:22;11.63;;;5.05;;
7295;SDS011;40758;54.038;11.684;2023-11-18T08:35:52;9.38;;;4.15;;
7295;SDS011;40758;54.038;11.684;2023-11-18T08:38:20;21.83;;;8.70;;
7295;SDS011;40758;54.038;11.684;2023-11-18T08:40:46;21.00;;;9.10;;
7295;SDS011;40758;54.038;11.684;2023-11-18T08:43:15;27.30;;;10.90;;
7295;SDS011;40758;54.038;11.684;2023-11-18T08:45:43;21.80;;;6.82;;
7295;SDS011;40758;54.038;11.684;2023-11-18T08:48:11;26.35;;;10.82;;
7295;SDS011;40758;54.038;11.684;2023-11-18T08:50:38;30.63;;;10.02;;
7295;SDS011;40758;54.038;11.684;2023-11-18T08:53:09;32.90;;;11.20;;
7295;SDS011;40758;54.038;11.684;2023-11-18T08:55:38;18.40;;;7.00;;
7295;SDS011;40758;54.038;11.684;2023-11-18T08:58:08;18.58;;;6.22;;
7295;SDS011;40758;54.038;11.684;2023-11-18T09:00:46;12.15;;;4.68;;
7295;SDS011;40758;54.038;11.684;2023-11-18T09:03:15;14.18;;;4.30;;
7295;SDS011;40758;54.038;11.684;2023-11-18T09:05:55;17.63;;;5.68;;
7295;SDS011;40758;54.038;11.684;2023-11-18T09:08:28;20.38;;;7.75;;
7295;SDS011;40758;54.038;11.684;2023-11-18T09:11:04;21.45;;;8.20;;
7295;SDS011;40758;54.038;11.684;2023-11-18T09:13:33;21.20;;;7.97;;
7295;SDS011;40758;54.038;11.684;2023-11-18T09:16:05;17.23;;;7.07;;
7295;SDS011;40758;54.038;11.684;2023-11-18T09:18:37;20.92;;;7.63;;
7295;SDS011;40758;54.038;11.684;2023-11-18T09:21:09;17.90;;;6.10;;
7295;SDS011;40758;54.038;11.684;2023-11-18T09:23:42;18.02;;;7.47;;
7295;SDS011;40758;54.038;11.684;2023-11-18T09:26:11;20.63;;;8.20;;
7295;SDS011;40758;54.038;11.684;2023-11-18T09:28:39;23.13;;;8.93;;
7295;SDS011;40758;54.038;11.684;2023-11-18T09:31:06;17.60;;;8.00;;
7295;SDS011;40758;54.038;11.684;2023-11-18T09:33:39;18.95;;;7.07;;
7295;SDS011;40758;54.038;11.684;2023-11-18T09:36:11;19.23;;;7.82;;
7295;SDS011;40758;54.038;11.684;2023-11-18T09:38:41;19.23;;;7.55;;
7295;SDS011;40758;54.038;11.684;2023-11-18T09:41:09;16.30;;;7.00;;
7295;SDS011;40758;54.038;11.684;2023-11-18T09:43:40;20.02;;;9.77;;
7295;SDS011;40758;54.038;11.684;2023-11-18T09:46:23;36.38;;;16.77;;
7295;SDS011;40758;54.038;11.684;2023-11-18T09:48:52;33.47;;;15.55;;
7295;SDS011;40758;54.038;11.684;2023-11-18T09:51:27;23.42;;;11.27;;
7295;SDS011;40758;54.038;11.684;2023-11-18T09:54:05;20.98;;;8.82;;
7295;SDS011;40758;54.038;11.684;2023-11-18T09:56:56;16.98;;;9.05;;
7295;SDS011;40758;54.038;11.684;2023-11-18T10:02:56;11.27;;;5.13;;
7295;SDS011;40758;54.038;11.684;2023-11-18T10:05:24;11.88;;;6.10;;
7295;SDS011;40758;54.038;11.684;2023-11-18T10:07:54;15.88;;;6.30;;
7295;SDS011;40758;54.038;11.684;2023-11-18T10:10:21;10.95;;;5.85;;
7295;SDS011;40758;54.038;11.684;2023-11-18T10:12:49;11.02;;;4.97;;
7295;SDS011;40758;54.038;11.684;2023-11-18T10:15:24;10.48;;;5.03;;
7295;SDS011;40758;54.038;11.684;2023-11-18T10:17:53;8.93;;;3.83;;
7295;SDS011;40758;54.038;11.684;2023-11-18T10:23:06;7.25;;;3.78;;
7295;SDS011;40758;54.038;11.684;2023-11-18T10:25:47;6.53;;;3.17;;
7295;SDS011;40758;54.038;11.684;2023-11-18T10:31:02;7.15;;;3.30;;
7295;SDS011;40758;54.038;11.684;2023-11-18T10:33:31;9.70;;;3.17;;
7295;SDS011;40758;54.038;11.684;2023-11-18T10:36:03;8.15;;;3.55;;
7295;SDS011;40758;54.038;11.684;2023-11-18T10:38:39;9.52;;;3.10;;
7295;SDS011;40758;54.038;11.684;2023-11-18T10:41:19;8.73;;;4.22;;
7295;SDS011;40758;54.038;11.684;2023-11-18T10:43:48;8.75;;;5.03;;
7295;SDS011;40758;54.038;11.684;2023-11-18T10:46:15;8.20;;;4.10;;
7295;SDS011;40758;54.038;11.684;2023-11-18T10:48:44;7.57;;;3.28;;
7295;SDS011;40758;54.038;11.684;2023-11-18T10:51:15;9.88;;;5.25;;
7295;SDS011;40758;54.038;11.684;2023-11-18T10:53:48;6.15;;;3.60;;
7295;SDS011;40758;54.038;11.684;2023-11-18T10:56:20;8.40;;;4.03;;
7295;SDS011;40758;54.038;11.684;2023-11-18T10:58:58;5.78;;;3.08;;
7295;SDS011;40758;54.038;11.684;2023-11-18T11:01:33;5.45;;;3.25;;
7295;SDS011;40758;54.038;11.684;2023-11-18T11:04:11;3.70;;;1.30;;
7295;SDS011;40758;54.038;11.684;2023-11-18T11:06:42;5.75;;;2.90;;
7295;SDS011;40758;54.038;11.684;2023-11-18T11:09:12;4.57;;;2.28;;
7295;SDS011;40758;54.038;11.684;2023-11-18T11:12:06;6.40;;;2.80;;
7295;SDS011;40758;54.038;11.684;2023-11-18T11:17:48;5.80;;;3.05;;
7295;SDS011;40758;54.038;11.684;2023-11-18T11:20:29;6.70;;;2.97;;
7295;SDS011;40758;54.038;11.684;2023-11-18T11:26:31;7.25;;;3.33;;
7295;SDS011;40758;54.038;11.684;2023-11-18T11:31:48;6.63;;;3.92;;
7295;SDS011;40758;54.038;11.684;2023-11-18T11:34:49;4.97;;;3.38;;
7295;SDS011;40758;54.038;11.684;2023-11-18T11:37:21;4.32;;;2.63;;
7295;SDS011;40758;54.038;11.684;2023-11-18T11:39:52;4.80;;;2.03;;
7295;SDS011;40758;54.038;11.684;2023-11-18T11:42:20;4.80;;;1.77;;
7295;SDS011;40758;54.038;11.684;2023-11-18T11:44:48;5.90;;;2.72;;
7295;SDS011;40758;54.038;11.684;2023-11-18T11:47:15;3.47;;;1.88;;
7295;SDS011;40758;54.038;11.684;2023-11-18T11:50:27;4.25;;;2.45;;
7295;SDS011;40758;54.038;11.684;2023-11-18T11:52:43;7.28;;;2.08;;
7295;SDS011;40758;54.038;11.684;2023-11-18T11:55:18;5.95;;;1.88;;
7295;SDS011;40758;54.038;11.684;2023-11-18T11:57:55;5.40;;;2.13;;
7295;SDS011;40758;54.038;11.684;2023-11-18T12:00:25;4.03;;;1.85;;
7295;SDS011;40758;54.038;11.684;2023-11-18T12:03:00;5.82;;;3.15;;
7295;SDS011;40758;54.038;11.684;2023-11-18T12:05:31;3.50;;;1.52;;
7295;SDS011;40758;54.038;11.684;2023-11-18T12:08:00;5.45;;;1.80;;
7295;SDS011;40758;54.038;11.684;2023-11-18T12:10:27;5.18;;;1.75;;
7295;SDS011;40758;54.038;11.684;2023-11-18T12:13:08;6.50;;;2.80;;
7295;SDS011;40758;54.038;11.684;2023-11-18T12:15:50;5.78;;;2.45;;
7295;SDS011;40758;54.038;11.684;2023-11-18T12:18:23;3.03;;;1.73;;
7295;SDS011;40758;54.038;11.684;2023-11-18T12:20:51;8.68;;;3.05;;
7295;SDS011;40758;54.038;11.684;2023-11-18T12:23:21;6.95;;;3.47;;
7295;SDS011;40758;54.038;11.684;2023-11-18T12:25:52;4.65;;;2.03;;
7295;SDS011;40758;54.038;11.684;2023-11-18T12:28:27;5.75;;;2.30;;
7295;SDS011;40758;54.038;11.684;2023-11-18T12:30:57;4.00;;;2.13;;
7295;SDS011;40758;54.038;11.684;2023-11-18T12:39:21;5.53;;;2.33;;
7295;SDS011;40758;54.038;11.684;2023-11-18T12:42:09;5.97;;;2.30;;
7295;SDS011;40758;54.038;11.684;2023-11-18T12:47:43;6.60;;;2.83;;
7295;SDS011;40758;54.038;11.684;2023-11-18T12:50:14;5.63;;;2.50;;
7295;SDS011;40758;54.038;11.684;2023-11-18T12:52:51;5.75;;;2.60;;
7295;SDS011;40758;54.038;11.684;2023-11-18T12:55:19;5.63;;;2.10;;
7295;SDS011;40758;54.038;11.684;2023-11-18T12:57:47;5.63;;;2.40;;
7295;SDS011;40758;54.038;11.684;2023-11-18T13:00:17;5.13;;;1.70;;
7295;SDS011;40758;54.038;11.684;2023-11-18T13:02:54;5.93;;;2.22;;
7295;SDS011;40758;54.038;11.684;2023-11-18T13:05:21;6.47;;;2.50;;
7295;SDS011;40758;54.038;11.684;2023-11-18T13:07:48;6.35;;;2.67;;
7295;SDS011;40758;54.038;11.684;2023-11-18T13:10:16;7.53;;;2.40;;
7295;SDS011;40758;54.038;11.684;2023-11-18T13:12:43;5.22;;;1.88;;
7295;SDS011;40758;54.038;11.684;2023-11-18T13:15:11;8.20;;;3.33;;
7295;SDS011;40758;54.038;11.684;2023-11-18T13:17:41;8.63;;;3.33;;
7295;SDS011;40758;54.038;11.684;2023-11-18T13:20:23;8.63;;;2.90;;
7295;SDS011;40758;54.038;11.684;2023-11-18T13:22:52;7.45;;;3.00;;
7295;SDS011;40758;54.038;11.684;2023-11-18T13:25:22;10.40;;;4.28;;
7295;SDS011;40758;54.038;11.684;2023-11-18T13:27:53;12.00;;;5.63;;
7295;SDS011;40758;54.038;11.684;2023-11-18T13:30:20;9.98;;;4.18;;
7295;SDS011;40758;54.038;11.684;2023-11-18T13:32:47;10.50;;;5.20;;
7295;SDS011;40758;54.038;11.684;2023-11-18T13:35:16;6.72;;;2.63;;
7295;SDS011;40758;54.038;11.684;2023-11-18T13:37:48;4.03;;;1.48;;
7295;SDS011;40758;54.038;11.684;2023-11-18T13:40:16;4.50;;;1.35;;
7295;SDS011;40758;54.038;11.684;2023-11-18T13:42:44;4.55;;;2.47;;
7295;SDS011;40758;54.038;11.684;2023-11-18T13:45:14;5.57;;;2.22;;
7295;SDS011;40758;54.038;11.684;2023-11-18T13:50:28;7.03;;;2.63;;
7295;SDS011;40758;54.038;11.684;2023-11-18T13:52:58;8.07;;;2.75;;
7295;SDS011;40758;54.038;11.684;2023-11-18T13:55:25;8.23;;;3.40;;
7295;SDS011;40758;54.038;11.684;2023-11-18T13:57:54;5.93;;;2.50;;
7295;SDS011;40758;54.038;11.684;2023-11-18T14:00:22;8.13;;;3.33;;
7295;SDS011;40758;54.038;11.684;2023-11-18T14:02:57;7.05;;;3.05;;
7295;SDS011;40758;54.038;11.684;2023-11-18T14:05:26;7.15;;;2.60;;
7295;SDS011;40758;54.038;11.684;2023-11-18T14:07:57;5.70;;;3.35;;
7295;SDS011;40758;54.038;11.684;2023-11-18T14:10:29;7.20;;;2.35;;
7295;SDS011;40758;54.038;11.684;2023-11-18T14:12:59;6.15;;;2.80;;
7295;SDS011;40758;54.038;11.684;2023-11-18T14:15:29;8.35;;;3.05;;
7295;SDS011;40758;54.038;11.684;2023-11-18T14:17:57;7.05;;;1.90;;
7295;SDS011;40758;54.038;11.684;2023-11-18T14:20:24;5.95;;;1.77;;
7295;SDS011;40758;54.038;11.684;2023-11-18T14:22:51;8.02;;;2.20;;
7295;SDS011;40758;54.038;11.684;2023-11-18T14:25:21;7.32;;;3.38;;
7295;SDS011;40758;54.038;11.684;2023-11-18T14:27:50;7.68;;;2.95;;
7295;SDS011;40758;54.038;11.684;2023-11-18T14:30:17;8.63;;;2.60;;
7295;SDS011;40758;54.038;11.684;2023-11-18T14:32:46;7.30;;;2.78;;
7295;SDS011;40758;54.038;11.684;2023-11-18T14:35:15;9.85;;;3.75;;
7295;SDS011;40758;54.038;11.684;2023-11-18T14:37:44;9.52;;;2.75;;
7295;SDS011;40758;54.038;11.684;2023-11-18T14:40:14;9.35;;;4.10;;
7295;SDS011;40758;54.038;11.684;2023-11-18T14:42:43;10.30;;;4.03;;
7295;SDS011;40758;54.038;11.684;2023-11-18T14:45:12;10.00;;;3.75;;
7295;SDS011;40758;54.038;11.684;2023-11-18T14:47:40;8.30;;;3.80;;
7295;SDS011;40758;54.038;11.684;2023-11-18T14:50:07;9.98;;;4.13;;
7295;SDS011;40758;54.038;11.684;2023-11-18T14:52:48;9.20;;;3.55;;
7295;SDS011;40758;54.038;11.684;2023-11-18T14:55:17;6.38;;;3.17;;
7295;SDS011;40758;54.038;11.684;2023-11-18T14:57:44;7.68;;;4.25;;
7295;SDS011;40758;54.038;11.684;2023-11-18T15:00:11;7.57;;;2.40;;
7295;SDS011;40758;54.038;11.684;2023-11-18T15:02:48;9.68;;;2.83;;
7295;SDS011;40758;54.038;11.684;2023-11-18T15:05:21;5.97;;;2.40;;
7295;SDS011;40758;54.038;11.684;2023-11-18T15:07:49;6.97;;;2.40;;
7295;SDS011;40758;54.038;11.684;2023-11-18T15:10:19;8.05;;;3.45;;
7295;SDS011;40758;54.038;11.684;2023-11-18T15:12:57;7.60;;;2.17;;
7295;SDS011;40758;54.038;11.684;2023-11-18T15:15:28;2.35;;;0.98;;
7295;SDS011;40758;54.038;11.684;2023-11-18T15:18:06;8.15;;;3.70;;
7295;SDS011;40758;54.038;11.684;2023-11-18T15:20:36;9.07;;;4.18;;
7295;SDS011;40758;54.038;11.684;2023-11-18T15:23:04;9.20;;;3.58;;
7295;SDS011;40758;54.038;11.684;2023-11-18T15:25:32;6.57;;;2.47;;
7295;SDS011;40758;54.038;11.684;2023-11-18T15:27:58;9.35;;;3.20;;
7295;SDS011;40758;54.038;11.684;2023-11-18T15:30:26;8.73;;;3.97;;
7295;SDS011;40758;54.038;11.684;2023-11-18T15:32:54;8.32;;;4.07;;
7295;SDS011;40758;54.038;11.684;2023-11-18T15:35:21;9.48;;;3.30;;
7295;SDS011;40758;54.038;11.684;2023-11-18T15:37:49;9.60;;;2.85;;
7295;SDS011;40758;54.038;11.684;2023-11-18T15:40:17;8.48;;;3.28;;
7295;SDS011;40758;54.038;11.684;2023-11-18T15:45:16;7.00;;;2.40;;
7295;SDS011;40758;54.038;11.684;2023-11-18T15:47:47;7.72;;;2.55;;